Time;durP1;ratioP1;P1;durP2;ratioP2;P2;SDS_P1;SDS_P2;PMS_P1;PMS_P2;Temp;Humidity;BMP_temperature;BMP_pressure;BME280_temperature;BME280_humidity;BME280_pressure;Samples;Min_cycle;Max_cycle;Signal;HPM_P1;HPM_P2
2021/11/22 00:01:58;;;;;;;30.02;17.92;;;;;;;7.22;91.70;100259.53;1591137;86;26382;-78
2021/11/22 00:04:25;;;;;;;34.67;18.02;;;;;;;7.22;91.67;100264.02;1615047;86;26019;-78
2021/11/22 00:06:52;;;;;;;36.42;19.07;;;;;;;7.20;91.71;100263.37;1661597;86;25746;-78
2021/11/22 00:09:19;;;;;;;33.60;19.05;;;;;;;7.20;91.67;100256.22;1661418;86;28162;-78
2021/11/22 00:11:49;;;;;;;34.10;17.82;;;;;;;7.20;91.55;100258.88;1610895;86;25860;-78
2021/11/22 00:14:17;;;;;;;28.05;17.87;;;;;;;7.19;91.45;100262.53;1615387;86;26592;-78
2021/11/22 00:16:44;;;;;;;34.10;17.80;;;;;;;7.20;91.49;100262.03;1636257;86;26361;-78
2021/11/22 00:19:12;;;;;;;31.42;18.15;;;;;;;7.20;91.45;100267.36;1661537;86;26252;-78
2021/11/22 00:21:39;;;;;;;36.98;17.95;;;;;;;7.20;91.49;100278.02;1623908;86;27441;-78
2021/11/22 00:24:06;;;;;;;34.90;19.07;;;;;;;7.20;91.42;100273.53;1636273;86;25764;-78
2021/11/22 00:26:33;;;;;;;29.02;18.17;;;;;;;7.22;91.34;100277.34;1636259;86;25863;-78
2021/11/22 00:29:00;;;;;;;33.28;19.15;;;;;;;7.19;91.30;100275.02;1661439;86;26406;-78
2021/11/22 00:31:40;;;;;;;30.35;16.40;;;;;;;7.17;91.21;100279.19;1611313;86;25836;-78
2021/11/22 00:34:09;;;;;;;35.95;18.90;;;;;;;7.14;91.22;100286.21;1636293;86;28829;-78
2021/11/22 00:36:49;;;;;;;34.80;18.25;;;;;;;7.09;91.18;100291.70;1638428;86;25338;-78
2021/11/22 00:39:16;;;;;;;30.37;15.45;;;;;;;7.06;91.28;100292.06;1661721;86;26107;-78
2021/11/22 00:41:44;;;;;;;27.13;15.45;;;;;;;7.03;91.21;100299.05;1634821;86;25890;-78
2021/11/22 00:44:11;;;;;;;28.45;17.70;;;;;;;6.98;91.36;100297.73;1592106;87;26256;-79
2021/11/22 00:46:38;;;;;;;31.10;16.70;;;;;;;6.98;91.40;100302.22;1616441;86;27937;-78
2021/11/22 00:49:05;;;;;;;34.55;17.12;;;;;;;7.00;91.45;100305.05;1664840;86;25934;-78
2021/11/22 00:51:33;;;;;;;32.55;17.35;;;;;;;7.02;91.43;100308.87;1603858;86;25790;-78
2021/11/22 00:54:00;;;;;;;29.50;16.62;;;;;;;7.02;91.39;100310.20;1634087;86;26647;-78
2021/11/22 00:56:29;;;;;;;31.62;17.02;;;;;;;7.02;91.24;100306.20;1639435;86;25936;-78
2021/11/22 00:58:56;;;;;;;30.82;16.60;;;;;;;7.03;91.19;100309.70;1627604;86;28392;-78
2021/11/22 01:01:23;;;;;;;30.72;16.75;;;;;;;7.03;91.20;100307.05;1604099;86;25888;-78
2021/11/22 01:03:50;;;;;;;32.08;16.07;;;;;;;7.01;91.14;100315.21;1605567;86;26704;-78
2021/11/22 01:06:18;;;;;;;27.82;16.15;;;;;;;7.02;91.13;100314.20;1638888;83;25967;-78
2021/11/22 01:08:45;;;;;;;30.15;16.23;;;;;;;7.02;91.16;100312.86;1664408;86;25834;-77
2021/11/22 01:11:12;;;;;;;31.17;17.25;;;;;;;7.01;90.94;100318.68;1603865;86;28247;-78
2021/11/22 01:13:39;;;;;;;32.75;16.80;;;;;;;6.99;90.93;100314.03;1634184;86;25753;-78
2021/11/22 01:16:07;;;;;;;32.85;17.77;;;;;;;7.00;90.98;100321.03;1605558;86;25839;-78
2021/11/22 01:18:34;;;;;;;31.52;17.45;;;;;;;7.00;90.94;100321.03;1664395;85;26528;-78
2021/11/22 01:21:01;;;;;;;34.48;17.07;;;;;;;6.97;90.81;100324.02;1627229;86;26098;-78
2021/11/22 01:23:28;;;;;;;32.28;15.58;;;;;;;6.98;90.91;100324.86;1656494;86;28246;-78
2021/11/22 01:25:55;;;;;;;29.12;16.42;;;;;;;6.98;91.00;100326.19;1605159;86;25783;-78
2021/11/22 01:28:22;;;;;;;26.65;16.20;;;;;;;6.97;90.75;100326.69;1639334;86;25824;-78
2021/11/22 01:30:49;;;;;;;26.50;15.18;;;;;;;6.94;90.55;100334.19;1664317;84;26564;-78
2021/11/22 01:33:16;;;;;;;27.30;16.37;;;;;;;6.91;90.42;100330.03;1605392;86;25861;-78
2021/11/22 01:35:44;;;;;;;24.82;14.58;;;;;;;6.90;90.59;100328.39;1633547;86;27465;-78
2021/11/22 01:38:15;;;;;;;31.77;15.58;;;;;;;6.90;90.64;100331.05;1637888;85;25910;-78
2021/11/22 01:40:44;;;;;;;27.58;15.35;;;;;;;6.89;90.54;100332.52;1626513;86;25772;-78
2021/11/22 01:43:14;;;;;;;28.17;15.18;;;;;;;6.86;90.62;100339.02;1626855;86;25784;-78
2021/11/22 01:45:47;;;;;;;30.52;15.95;;;;;;;6.85;90.68;100342.70;1606408;86;25966;-78
2021/11/22 01:48:16;;;;;;;25.45;14.63;;;;;;;6.85;90.57;100343.19;1638149;86;28113;-78
2021/11/22 01:50:46;;;;;;;25.43;15.40;;;;;;;6.84;90.61;100338.87;1649400;86;25945;-78
2021/11/22 01:53:13;;;;;;;30.65;15.53;;;;;;;6.83;90.62;100345.19;1607503;86;25877;-77
2021/11/22 01:55:41;;;;;;;27.85;15.03;;;;;;;6.80;90.64;100349.54;1621118;86;26565;-78
2021/11/22 01:58:08;;;;;;;27.27;15.45;;;;;;;6.78;90.57;100359.00;1631167;86;25958;-78
2021/11/22 02:00:40;;;;;;;27.00;15.65;;;;;;;6.75;90.69;100356.70;1656924;85;27063;-78
2021/11/22 02:03:09;;;;;;;30.70;14.83;;;;;;;6.75;90.75;100360.69;1632925;86;25885;-78
2021/11/22 02:05:38;;;;;;;28.38;14.70;;;;;;;6.72;90.59;100355.69;1621451;86;25836;-78
2021/11/22 02:08:06;;;;;;;25.60;14.58;;;;;;;6.68;90.50;100361.02;1630639;86;25881;-78
2021/11/22 02:10:34;;;;;;;25.72;13.62;;;;;;;6.65;90.57;100361.34;1656656;85;25886;-78
2021/11/22 02:13:02;;;;;;;26.12;13.93;;;;;;;6.65;90.62;100363.19;1614175;86;27491;-78
2021/11/22 02:15:29;;;;;;;27.37;14.95;;;;;;;6.63;90.71;100363.34;1656573;86;26694;-78
2021/11/22 02:17:57;;;;;;;27.55;15.35;;;;;;;6.63;90.73;100364.67;1630877;86;25799;-78
2021/11/22 02:20:28;;;;;;;26.37;15.65;;;;;;;6.62;90.61;100365.68;1656869;85;26044;-77
2021/11/22 02:23:03;;;;;;;30.30;15.43;;;;;;;6.62;90.54;100371.01;1614560;86;26640;-78
2021/11/22 02:25:33;;;;;;;25.85;14.63;;;;;;;6.56;90.44;100371.67;1634148;86;28215;-78
2021/11/22 02:28:01;;;;;;;31.87;16.50;;;;;;;6.54;90.64;100371.51;1597991;86;25970;-78
2021/11/22 02:30:33;;;;;;;28.15;14.53;;;;;;;6.55;90.79;100377.98;1656765;85;25844;-78
2021/11/22 02:33:05;;;;;;;30.82;16.35;;;;;;;6.56;90.81;100380.15;1631718;86;26039;-78
2021/11/22 02:35:36;;;;;;;26.57;15.50;;;;;;;6.56;90.77;100382.81;1631979;86;25931;-78
2021/11/22 02:38:04;;;;;;;27.98;14.65;;;;;;;6.54;90.79;100387.47;1631555;86;27401;-78
2021/11/22 02:40:32;;;;;;;31.05;16.25;;;;;;;6.53;90.72;100388.45;1631623;86;25944;-78
2021/11/22 02:42:59;;;;;;;27.13;15.28;;;;;;;6.50;90.71;100388.28;1608124;86;25907;-78
2021/11/22 02:45:26;;;;;;;30.17;14.90;;;;;;;6.48;90.80;100390.80;1620931;85;26629;-78
2021/11/22 02:47:54;;;;;;;26.55;14.53;;;;;;;6.48;90.86;100390.80;1652345;86;25805;-78
2021/11/22 02:50:21;;;;;;;27.17;14.93;;;;;;;6.48;90.98;100382.82;1597652;86;28179;-78
2021/11/22 02:52:51;;;;;;;26.85;15.53;;;;;;;6.47;90.92;100389.95;1630732;86;25909;-78
2021/11/22 02:55:20;;;;;;;26.60;14.95;;;;;;;6.46;90.91;100389.61;1641524;86;26577;-78
2021/11/22 02:57:48;;;;;;;25.27;14.83;;;;;;;6.46;90.83;100397.59;1664808;86;25907;-78
2021/11/22 03:00:23;;;;;;;30.12;15.05;;;;;;;6.47;90.83;100403.75;1640428;86;26008;-78
2021/11/22 03:02:51;;;;;;;25.05;14.00;;;;;;;6.46;90.86;100400.25;1627563;87;28149;-78
2021/11/22 03:05:19;;;;;;;28.05;15.32;;;;;;;6.46;90.65;100407.42;1641501;86;25862;-78
2021/11/22 03:07:50;;;;;;;32.45;14.83;;;;;;;6.46;90.57;100401.59;1641591;86;25763;-78
2021/11/22 03:10:18;;;;;;;;;;;;;;;6.45;90.54;100401.27;1642745;86;26567;-78
2021/11/22 03:12:46;;;;;;;26.37;13.58;;;;;;;6.44;90.46;100402.25;1604551;87;25854;-78
2021/11/22 03:15:16;;;;;;;30.35;14.20;;;;;;;6.40;90.49;100407.57;1664928;86;27605;-78
2021/11/22 03:17:45;;;;;;;20.75;13.20;;;;;;;6.39;90.41;100419.22;1656941;86;25871;-78
2021/11/22 03:20:16;;;;;;;29.00;14.60;;;;;;;6.38;90.37;100426.02;1619525;84;25852;-78
2021/11/22 03:22:44;;;;;;;26.42;14.35;;;;;;;6.35;90.36;100425.84;1619578;86;26412;-77
2021/11/22 03:25:15;;;;;;;25.40;14.55;;;;;;;6.33;90.41;100430.50;1664735;85;26212;-78
2021/11/22 03:27:43;;;;;;;28.40;15.90;;;;;;;6.32;90.43;100432.00;1657117;85;32875;-78
2021/11/22 03:30:13;;;;;;;25.70;15.72;;;;;;;6.29;90.44;100435.00;1619518;84;26310;-78
2021/11/22 03:32:40;;;;;;;28.12;15.08;;;;;;;6.27;90.42;100438.30;1618793;86;25899;-78
2021/11/22 03:35:08;;;;;;;31.05;15.70;;;;;;;6.26;90.50;100445.47;1664765;85;25912;-78
2021/11/22 03:37:36;;;;;;;28.67;15.80;;;;;;;6.26;90.42;100445.95;1656837;86;26593;-78
2021/11/22 03:40:05;;;;;;;29.20;15.38;;;;;;;6.25;90.35;100457.08;1619493;84;27584;-78
2021/11/22 03:45:14;;;;;;;28.15;15.00;;;;;;;6.22;90.28;100458.76;1613914;86;25854;-78
2021/11/22 03:47:41;;;;;;;28.02;14.90;;;;;;;6.21;90.20;100473.03;1625030;86;26386;-78
2021/11/22 03:50:08;;;;;;;28.32;15.75;;;;;;;6.17;90.16;100480.52;1577458;86;25900;-78
2021/11/22 03:52:35;;;;;;;30.23;15.32;;;;;;;6.14;90.04;100473.34;1633079;86;27659;-78
2021/11/22 03:55:04;;;;;;;28.07;14.93;;;;;;;6.09;90.07;100475.66;1627034;86;26003;-78
2021/11/22 03:57:31;;;;;;;28.27;14.43;;;;;;;6.07;89.94;100477.13;1611574;87;26632;-78
2021/11/22 03:59:59;;;;;;;25.60;14.58;;;;;;;6.02;89.88;100483.94;1627632;86;26542;-78
2021/11/22 04:02:27;;;;;;;25.10;13.55;;;;;;;5.98;89.67;100485.26;1627974;86;25911;-78
2021/11/22 04:04:55;;;;;;;24.27;15.15;;;;;;;5.96;89.72;100486.75;1647970;86;28081;-78
2021/11/22 04:07:23;;;;;;;26.50;13.18;;;;;;;5.94;89.60;100486.57;1604606;87;26252;-78
2021/11/22 04:09:51;;;;;;;25.00;13.48;;;;;;;5.92;89.42;100489.89;1590578;86;25903;-78
2021/11/22 04:12:18;;;;;;;24.72;14.78;;;;;;;5.91;89.47;100493.52;1617690;87;26135;-78
2021/11/22 04:14:45;;;;;;;25.82;14.00;;;;;;;5.89;89.41;100491.52;1623270;87;25934;-78
2021/11/22 04:17:12;;;;;;;22.77;13.43;;;;;;;5.85;89.23;100497.66;1610038;87;27230;-78
2021/11/22 04:19:39;;;;;;;25.77;13.55;;;;;;;5.79;89.07;100506.25;1591471;87;25844;-77
2021/11/22 04:22:07;;;;;;;21.60;13.62;;;;;;;5.76;89.23;100505.70;1635829;86;26542;-78
2021/11/22 04:24:34;;;;;;;27.15;14.95;;;;;;;5.74;89.28;100508.53;1660635;86;26568;-78
2021/11/22 04:27:02;;;;;;;47.40;14.38;;;;;;;5.73;89.35;100508.18;1636130;86;25868;-78
2021/11/22 04:29:29;;;;;;;22.95;13.08;;;;;;;5.73;89.49;100512.17;1620839;88;28334;-78
2021/11/22 04:31:56;;;;;;;23.45;13.28;;;;;;;5.71;89.46;100511.49;1617090;86;25928;-78
2021/11/22 04:34:23;;;;;;;24.35;13.20;;;;;;;5.68;89.41;100513.16;1643656;86;25887;-78
2021/11/22 04:36:51;;;;;;;19.45;12.40;;;;;;;5.67;89.38;100531.41;1627028;86;26106;-78
2021/11/22 04:39:19;;;;;;;23.15;13.30;;;;;;;5.66;89.32;100530.23;1575822;86;44341;-78
2021/11/22 04:41:47;;;;;;;23.25;12.75;;;;;;;5.63;89.28;100523.41;1605473;86;27453;-78
2021/11/22 04:44:14;;;;;;;24.72;13.68;;;;;;;5.62;89.58;100528.41;1603401;87;25831;-77
2021/11/22 04:46:41;;;;;;;27.37;13.65;;;;;;;5.62;89.44;100531.55;1615609;86;26601;-78
2021/11/22 04:49:08;;;;;;;21.12;13.35;;;;;;;5.60;89.41;100534.86;1610585;86;25955;-79
2021/11/22 04:51:37;;;;;;;25.27;13.62;;;;;;;5.59;89.26;100541.14;1625761;86;26292;-78
2021/11/22 04:54:04;;;;;;;22.07;12.98;;;;;;;5.58;89.29;100542.96;1614068;86;27500;-79
2021/11/22 04:56:31;;;;;;;22.60;12.45;;;;;;;5.56;89.17;100549.45;1637565;86;25865;-79
2021/11/22 04:58:59;;;;;;;20.60;12.80;;;;;;;5.55;89.35;100554.41;1633331;86;26771;-78
2021/11/22 05:01:26;;;;;;;26.17;14.60;;;;;;;5.54;89.37;100549.58;1587756;86;25961;-79
2021/11/22 05:03:53;;;;;;;24.92;13.93;;;;;;;5.52;89.50;100550.75;1638332;86;25872;-79
2021/11/22 05:06:20;;;;;;;27.02;13.18;;;;;;;5.45;89.43;100550.02;1593874;86;27481;-79
2021/11/22 05:08:47;;;;;;;21.93;13.13;;;;;;;5.43;89.61;100552.52;1592650;86;25867;-78
2021/11/22 05:11:14;;;;;;;23.07;13.85;;;;;;;5.43;89.75;100557.31;1585438;85;25919;-79
2021/11/22 05:13:41;;;;;;;27.73;15.40;;;;;;;5.42;89.78;100568.09;1628950;86;25908;-79
2021/11/22 05:16:08;;;;;;;25.77;14.45;;;;;;;5.44;90.05;100573.60;1616760;86;25769;-78
2021/11/22 05:18:35;;;;;;;28.23;14.43;;;;;;;5.46;90.18;100568.97;1604729;86;27107;-78
2021/11/22 05:21:03;;;;;;;25.48;14.03;;;;;;;5.48;90.09;100577.61;1576108;87;25895;-79
2021/11/22 05:23:30;;;;;;;27.10;14.23;;;;;;;5.49;90.09;100575.80;1600921;86;25834;-79
2021/11/22 05:25:57;;;;;;;25.88;14.68;;;;;;;5.47;90.22;100577.78;1636498;86;25879;-79
2021/11/22 05:28:26;;;;;;;22.42;13.45;;;;;;;5.48;90.12;100582.09;1622806;86;25968;-79
2021/11/22 05:30:53;;;;;;;23.67;13.98;;;;;;;5.48;90.19;100582.93;1658503;86;28119;-82
2021/11/22 05:33:20;;;;;;;24.27;13.15;;;;;;;5.48;90.13;100585.59;1637840;86;25914;-79
2021/11/22 05:35:47;;;;;;;24.18;13.98;;;;;;;5.48;90.08;100586.07;1610115;86;25893;-79
2021/11/22 05:38:14;;;;;;;21.75;13.05;;;;;;;5.46;90.07;100588.89;1622310;86;26549;-78
2021/11/22 05:40:41;;;;;;;22.85;13.28;;;;;;;5.47;89.87;100589.73;1636132;86;25752;-79
2021/11/22 05:43:08;;;;;;;25.00;14.38;;;;;;;5.45;90.01;100591.19;1659598;85;28323;-79
2021/11/22 05:45:36;;;;;;;22.37;13.85;;;;;;;5.44;89.93;100588.22;1635870;86;26034;-79
2021/11/22 05:48:07;;;;;;;22.45;13.53;;;;;;;5.44;90.02;100601.49;1609187;86;26214;-78
2021/11/22 05:50:32;;;;;;;26.57;12.75;;;;;;;5.43;90.08;100599.00;1634789;84;25726;-79
2021/11/22 05:53:01;;;;;;;21.62;12.40;;;;;;;5.40;89.94;100602.80;1622372;86;25761;-79
2021/11/22 05:55:37;;;;;;;23.20;13.50;;;;;;;5.38;90.07;100599.95;1596862;86;28502;-79
2021/11/22 05:58:03;;;;;;;22.35;13.53;;;;;;;5.35;90.22;100593.11;1639443;86;25547;-79
2021/11/22 06:00:31;;;;;;;20.50;13.28;;;;;;;5.34;90.11;100599.91;1596687;86;26072;-79
2021/11/22 06:02:58;;;;;;;18.60;12.75;;;;;;;5.33;90.24;100604.87;1638182;86;25853;-79
2021/11/22 06:05:25;;;;;;;19.73;12.50;;;;;;;5.33;90.22;100608.86;1602815;86;26672;-79
2021/11/22 06:07:52;;;;;;;20.92;13.00;;;;;;;5.32;90.12;100615.98;1643028;86;27113;-79
2021/11/22 06:10:20;;;;;;;20.97;12.25;;;;;;;5.33;90.35;100616.33;1604936;86;25851;-79
2021/11/22 06:12:47;;;;;;;21.75;12.60;;;;;;;5.36;90.49;100617.38;1657116;86;25742;-78
2021/11/22 06:15:14;;;;;;;20.82;13.95;;;;;;;5.35;90.52;100623.66;1612202;86;26590;-79
2021/11/22 06:17:41;;;;;;;22.05;12.88;;;;;;;5.37;90.58;100628.32;1630139;86;25730;-79
2021/11/22 06:20:11;;;;;;;24.27;13.53;;;;;;;5.39;90.71;100632.14;1572223;88;27505;-79
2021/11/22 06:22:38;;;;;;;24.98;14.23;;;;;;;5.39;90.69;100633.47;1635924;86;25781;-79
2021/11/22 06:25:06;;;;;;;22.40;14.03;;;;;;;5.40;90.77;100634.67;1612485;86;25360;-79
2021/11/22 06:27:34;;;;;;;19.82;13.53;;;;;;;5.42;90.90;100649.11;1641256;86;26662;-79
2021/11/22 06:30:04;;;;;;;23.87;13.25;;;;;;;5.45;91.00;100655.47;1631640;86;25997;-79
2021/11/22 06:32:31;;;;;;;22.60;13.62;;;;;;;5.47;91.04;100654.30;1657187;86;28180;-79
2021/11/22 06:34:58;;;;;;;22.67;12.98;;;;;;;5.48;90.96;100662.62;1632416;86;25886;-79
2021/11/22 06:37:27;;;;;;;20.23;12.53;;;;;;;5.51;90.97;100668.62;1619353;86;25864;-79
2021/11/22 06:39:55;;;;;;;21.37;13.03;;;;;;;5.49;90.82;100674.09;1632260;86;25809;-79
2021/11/22 06:42:22;;;;;;;23.38;14.43;;;;;;;5.51;90.82;100676.59;1657282;86;25827;-79
2021/11/22 06:44:50;;;;;;;28.32;14.65;;;;;;;5.51;90.75;100676.59;1632295;86;27482;-79
2021/11/22 06:47:18;;;;;;;26.00;16.05;;;;;;;5.51;90.75;100672.12;1641295;86;25785;-78
2021/11/22 06:49:45;;;;;;;27.40;16.75;;;;;;;5.51;90.63;100674.77;1631677;86;26597;-79
2021/11/22 06:52:14;;;;;;;30.00;17.75;;;;;;;5.53;90.64;100680.77;1657007;85;25924;-79
2021/11/22 06:54:41;;;;;;;29.18;16.27;;;;;;;5.54;90.73;100684.27;1610912;86;25894;-78
2021/11/22 06:57:08;;;;;;;26.10;15.78;;;;;;;5.56;90.62;100688.94;1620954;86;28292;-79
2021/11/22 06:59:36;;;;;;;23.62;15.72;;;;;;;5.57;90.68;100687.44;1631015;86;25984;-79
2021/11/22 07:02:04;;;;;;;24.47;14.03;;;;;;;5.59;90.71;100688.61;1656782;85;25799;-79
2021/11/22 07:04:31;;;;;;;18.73;11.80;;;;;;;5.61;90.57;100691.95;1614361;86;26495;-79
2021/11/22 07:06:58;;;;;;;17.07;10.80;;;;;;;5.59;90.19;100699.23;1599935;86;25422;-79
2021/11/22 07:09:26;;;;;;;17.65;10.05;;;;;;;5.52;89.80;100699.01;1631219;86;27439;-79
2021/11/22 07:11:53;;;;;;;18.02;10.48;;;;;;;5.49;89.84;100711.29;1656784;85;25807;-79
2021/11/22 07:14:20;;;;;;;15.45;10.82;;;;;;;5.44;89.79;100714.39;1614311;86;25924;-79
2021/11/22 07:16:49;;;;;;;18.55;11.55;;;;;;;5.41;89.96;100711.19;1632108;86;26617;-79
2021/11/22 07:19:16;;;;;;;21.52;12.43;;;;;;;5.39;90.05;100716.66;1620959;86;25841;-79
2021/11/22 07:21:43;;;;;;;20.65;11.70;;;;;;;5.34;90.08;100722.93;1656887;85;27637;-79
2021/11/22 07:24:10;;;;;;;21.23;13.32;;;;;;;5.33;90.41;100722.58;1614273;86;26585;-79
2021/11/22 07:26:37;;;;;;;24.98;14.10;;;;;;;5.34;90.62;100716.77;1619656;86;25843;-79
2021/11/22 07:29:06;;;;;;;20.00;13.53;;;;;;;5.37;90.85;100728.41;1632356;86;26489;-79
2021/11/22 07:31:33;;;;;;;18.45;11.95;;;;;;;5.39;91.17;100729.94;1657263;86;25903;-81
2021/11/22 07:34:00;;;;;;;26.25;13.35;;;;;;;5.40;91.25;100734.77;1612733;86;27240;-79
2021/11/22 07:36:27;;;;;;;19.90;12.88;;;;;;;5.43;91.51;100733.15;1620710;86;25874;-79
2021/11/22 07:38:54;;;;;;;20.85;13.20;;;;;;;5.46;91.75;100731.02;1632388;86;25899;-79
2021/11/22 07:41:22;;;;;;;17.50;11.65;;;;;;;5.49;91.82;100736.53;1632510;86;25817;-79
2021/11/22 07:43:49;;;;;;;18.05;11.90;;;;;;;5.54;92.04;100737.41;1608500;86;25320;-79
2021/11/22 07:46:17;;;;;;;18.50;12.35;;;;;;;5.59;92.27;100739.94;1591615;87;27534;-79
2021/11/22 07:48:44;;;;;;;16.02;10.88;;;;;;;5.63;92.31;100739.97;1593456;88;26650;-79
2021/11/22 07:51:11;;;;;;;17.92;11.65;;;;;;;5.67;92.41;100745.32;1660858;86;25851;-79
2021/11/22 07:53:39;;;;;;;19.05;11.30;;;;;;;5.71;92.59;100752.52;1614347;86;26024;-79
2021/11/22 07:56:07;;;;;;;15.10;10.00;;;;;;;5.71;92.67;100756.50;1635047;86;25963;-79
2021/11/22 07:58:34;;;;;;;13.15;9.05;;;;;;;5.72;92.88;100757.67;1613790;86;27887;-80
2021/11/22 08:01:02;;;;;;;13.28;8.70;;;;;;;5.71;92.96;100766.62;1622526;86;26137;-79
2021/11/22 08:03:29;;;;;;;16.60;9.45;;;;;;;5.71;92.84;100775.11;1604807;86;26533;-79
2021/11/22 08:05:57;;;;;;;16.12;8.25;;;;;;;5.70;93.04;100780.91;1606673;87;26559;-79
2021/11/22 08:08:30;;;;;;;12.78;7.65;;;;;;;5.71;93.19;100787.88;1610739;87;26569;-77
2021/11/22 08:11:17;;;;;;;12.70;7.83;;;;;;;5.71;93.23;100789.73;1636160;87;28434;-80
2021/11/22 08:13:35;;;;;;;15.03;8.20;;;;;;;5.72;93.47;100791.38;1606041;86;25931;-80
2021/11/22 08:16:05;;;;;;;12.15;8.08;;;;;;;5.71;93.35;100797.18;1632512;86;25916;-80
2021/11/22 08:18:32;;;;;;;15.13;8.73;;;;;;;5.69;93.24;100796.50;1612161;87;25838;-80
2021/11/22 08:21:01;;;;;;;14.23;9.10;;;;;;;5.71;93.30;100797.18;1649811;86;25884;-81
2021/11/22 08:23:28;;;;;;;14.43;9.53;;;;;;;5.73;93.54;100802.37;1604832;86;27636;-80
2021/11/22 08:25:56;;;;;;;14.20;8.48;;;;;;;5.74;93.62;100804.02;1623378;86;25844;-80
2021/11/22 08:28:24;;;;;;;12.55;8.28;;;;;;;5.76;93.77;100806.03;1649919;86;25831;-80
2021/11/22 08:30:51;;;;;;;13.05;8.48;;;;;;;5.81;93.88;100806.43;1583836;86;26563;-80
2021/11/22 08:33:20;;;;;;;13.90;7.95;;;;;;;5.84;93.69;100806.98;1611455;86;25908;-80
2021/11/22 08:35:49;;;;;;;;;;;;;;;5.87;93.99;100808.02;1634577;86;26700;-80
2021/11/22 08:38:18;;;;;;;13.62;8.35;;;;;;;5.93;94.17;100811.89;1632588;86;25924;-80
2021/11/22 08:40:47;;;;;;;11.88;8.10;;;;;;;5.94;94.32;100814.91;1589342;86;25918;-80
2021/11/22 08:43:17;;;;;;;11.40;8.28;;;;;;;5.95;94.33;100813.90;1598993;86;25913;-80
2021/11/22 08:45:47;;;;;;;13.80;6.97;;;;;;;5.94;94.23;100814.91;1636910;86;25967;-80
2021/11/22 08:48:18;;;;;;;9.45;6.72;;;;;;;5.92;94.32;100814.22;1654986;86;27184;-80
2021/11/22 08:50:46;;;;;;;10.78;7.33;;;;;;;5.88;94.19;100817.66;1609663;86;26000;-79
2021/11/22 08:53:12;;;;;;;11.63;7.67;;;;;;;5.86;94.51;100826.80;1578570;86;25374;-80
2021/11/22 08:55:40;;;;;;;8.78;6.80;;;;;;;5.85;94.32;100822.45;1657055;86;25956;-80
2021/11/22 08:58:07;;;;;;;14.20;8.20;;;;;;;5.86;94.50;100826.27;1631139;86;25861;-80
2021/11/22 09:00:37;;;;;;;13.48;8.43;;;;;;;5.88;94.71;100827.48;1599384;85;27497;-80
2021/11/22 09:03:04;;;;;;;10.70;7.28;;;;;;;5.89;94.60;100834.45;1632637;86;25851;-80
2021/11/22 09:05:32;;;;;;;11.78;8.03;;;;;;;5.86;94.34;100831.59;1657009;86;25926;-80
2021/11/22 09:07:59;;;;;;;12.55;7.87;;;;;;;5.85;94.47;100843.71;1621145;86;26739;-80
2021/11/22 09:10:27;;;;;;;12.53;7.90;;;;;;;5.82;94.32;100837.32;1600103;86;25971;-80
2021/11/22 09:12:55;;;;;;;11.22;7.95;;;;;;;5.83;94.46;100845.66;1611199;86;27490;-80
2021/11/22 09:15:23;;;;;;;11.60;8.83;;;;;;;5.83;94.44;100848.31;1657494;86;25842;-79
2021/11/22 09:17:50;;;;;;;10.43;7.37;;;;;;;5.84;94.29;100844.69;1620938;86;25814;-80
2021/11/22 09:20:17;;;;;;;12.40;8.43;;;;;;;5.85;94.07;100845.88;1590352;85;26772;-80
2021/11/22 09:22:44;;;;;;;11.35;7.92;;;;;;;5.85;94.21;100851.69;1632585;86;26203;-80
2021/11/22 09:25:12;;;;;;;11.75;7.95;;;;;;;5.82;93.85;100851.45;1657589;86;27207;-80
2021/11/22 09:27:39;;;;;;;9.20;7.15;;;;;;;5.83;93.91;100857.62;1621335;86;25935;-80
2021/11/22 09:30:08;;;;;;;10.93;7.92;;;;;;;5.82;93.70;100852.78;1590043;85;25889;-79
2021/11/22 09:32:35;;;;;;;11.00;7.75;;;;;;;5.82;93.88;100860.77;1632425;86;26668;-80
2021/11/22 09:35:05;;;;;;;12.70;8.25;;;;;;;5.84;93.93;100859.30;1657506;85;25765;-80
2021/11/22 09:37:34;;;;;;;11.22;6.97;;;;;;;5.86;93.88;100854.70;1620772;86;27711;-80
2021/11/22 09:40:02;;;;;;;11.55;7.17;;;;;;;5.87;93.77;100859.86;1590567;85;26001;-80
2021/11/22 09:42:29;;;;;;;10.32;7.85;;;;;;;5.87;93.54;100862.52;1632306;86;26106;-80
2021/11/22 09:44:56;;;;;;;9.58;7.40;;;;;;;5.87;93.51;100864.34;1632624;86;25927;-80
2021/11/22 09:47:23;;;;;;;10.95;7.28;;;;;;;5.89;93.61;100865.86;1621395;86;25929;-80
2021/11/22 09:49:54;;;;;;;9.33;7.08;;;;;;;5.93;93.85;100869.89;1590210;86;27641;-80
2021/11/22 09:52:19;;;;;;;11.48;8.38;;;;;;;5.95;93.58;100872.39;1632879;86;25923;-80
2021/11/22 09:54:46;;;;;;;10.60;8.43;;;;;;;5.94;93.47;100874.23;1657424;86;26453;-80
2021/11/22 09:57:14;;;;;;;10.75;7.70;;;;;;;5.94;93.46;100872.06;1620753;86;25814;-80
2021/11/22 09:59:42;;;;;;;8.65;6.53;;;;;;;5.92;93.19;100873.52;1590440;86;26740;-79
2021/11/22 10:02:10;;;;;;;10.18;7.25;;;;;;;5.92;93.10;100872.19;1598970;86;27196;-80
2021/11/22 10:04:37;;;;;;;8.03;6.35;;;;;;;5.91;92.58;100872.34;1657423;86;26244;-80
2021/11/22 10:07:09;;;;;;;10.45;6.40;;;;;;;5.89;92.35;100871.18;1631075;86;25420;-80
2021/11/22 10:09:44;;;;;;;9.98;7.37;;;;;;;5.90;92.50;100870.17;1609683;86;26582;-80
2021/11/22 10:12:20;;;;;;;9.15;6.58;;;;;;;5.96;92.71;100876.73;1611253;86;25915;-80
2021/11/22 10:14:53;;;;;;;9.15;6.95;;;;;;;5.99;92.36;100877.75;1657235;86;27489;-80
2021/11/22 10:17:34;;;;;;;10.48;6.95;;;;;;;6.00;92.12;100878.95;1631350;86;25850;-80
2021/11/22 10:20:12;;;;;;;9.95;5.90;;;;;;;6.01;91.72;100875.77;1611338;86;25793;-80
2021/11/22 10:23:04;;;;;;;10.45;6.37;;;;;;;6.07;92.25;100873.86;1632770;86;25909;-80
2021/11/22 10:25:35;;;;;;;6.67;5.53;;;;;;;6.12;91.57;100880.87;1656335;85;25837;-80
2021/11/22 10:28:19;;;;;;;8.40;5.95;;;;;;;6.16;91.58;100879.58;1607108;87;27227;-80
2021/11/22 10:31:07;;;;;;;8.83;5.83;;;;;;;6.24;91.65;100882.34;1611986;87;26625;-80
2021/11/22 10:33:38;;;;;;;8.73;5.22;;;;;;;6.30;91.30;100885.72;1627138;86;25889;-81
2021/11/22 10:36:10;;;;;;;9.68;5.83;;;;;;;6.34;91.19;100874.27;1649270;86;26322;-80
2021/11/22 10:38:40;;;;;;;6.70;5.10;;;;;;;6.33;90.32;100879.27;1641796;86;25780;-80
2021/11/22 10:41:27;;;;;;;6.75;5.15;;;;;;;6.34;90.28;100888.41;1590798;85;27680;-80
2021/11/22 10:44:08;;;;;;;8.30;5.45;;;;;;;6.42;90.95;100886.30;1632565;86;25905;-81
2021/11/22 10:46:46;;;;;;;7.53;5.35;;;;;;;6.51;90.50;100884.91;1656304;86;25889;-80
2021/11/22 10:49:29;;;;;;;7.65;4.95;;;;;;;6.63;91.24;100886.84;1631359;86;25878;-79
2021/11/22 10:52:35;;;;;;;6.12;4.42;;;;;;;6.76;90.85;100893.42;1636396;86;26164;-80
2021/11/22 10:55:00;;;;;;;7.10;4.97;;;;;;;6.77;89.15;100891.11;1655455;86;27493;-80
2021/11/22 10:57:40;;;;;;;7.03;4.70;;;;;;;6.76;89.39;100899.23;1657457;86;25879;-80
2021/11/22 11:00:25;;;;;;;5.47;4.20;;;;;;;6.76;89.29;100903.22;1632291;85;25921;-80
2021/11/22 11:02:55;;;;;;;6.45;4.75;;;;;;;6.78;88.68;100900.75;1632385;86;25797;-80
2021/11/22 11:05:37;;;;;;;6.17;4.05;;;;;;;6.79;89.01;100896.27;1617019;86;33836;-80
2021/11/22 11:08:11;;;;;;;6.83;4.08;;;;;;;6.78;88.68;100900.75;1664964;86;28073;-80
2021/11/22 11:10:40;;;;;;;5.65;2.95;;;;;;;6.76;88.30;100900.08;1664707;84;25600;-80
2021/11/22 11:13:08;;;;;;;11.95;3.10;;;;;;;6.75;87.54;100908.22;1597320;86;26157;-80
2021/11/22 11:15:35;;;;;;;4.55;2.92;;;;;;;6.74;87.69;100902.55;1612237;86;26599;-80
2021/11/22 11:18:03;;;;;;;6.55;4.10;;;;;;;6.77;87.72;100904.91;1639603;86;26431;-80
2021/11/22 11:20:30;;;;;;;5.15;3.22;;;;;;;6.79;87.85;100904.26;1638286;86;27211;-80
2021/11/22 11:22:58;;;;;;;5.83;3.60;;;;;;;6.81;87.80;100902.27;1597392;86;25906;-81
2021/11/22 11:25:28;;;;;;;7.05;4.28;;;;;;;6.84;87.61;100908.63;1612536;86;25392;-80
2021/11/22 11:27:54;;;;;;;5.85;3.58;;;;;;;6.87;87.69;100907.81;1634567;86;25919;-80
2021/11/22 11:30:22;;;;;;;7.40;4.12;;;;;;;6.91;87.65;100908.33;1638702;86;25925;-80
2021/11/22 11:32:53;;;;;;;4.62;3.20;;;;;;;6.94;87.38;100895.56;1633460;86;27638;-80